sensor_id;sensor_type;location;lat;lon;timestamp;temperature;humidity
23116;DHT22;11727;52.134;5.052;2023-04-12T00:00:22;8.60;99.90
23116;DHT22;11727;52.134;5.052;2023-04-12T00:02:48;8.60;99.90
23116;DHT22;11727;52.134;5.052;2023-04-12T00:05:21;8.60;99.90
23116;DHT22;11727;52.134;5.052;2023-04-12T00:07:50;8.60;99.90
23116;DHT22;11727;52.134;5.052;2023-04-12T00:10:18;8.50;99.90
23116;DHT22;11727;52.134;5.052;2023-04-12T00:12:44;8.50;99.90
23116;DHT22;11727;52.134;5.052;2023-04-12T00:15:10;8.50;99.90
23116;DHT22;11727;52.134;5.052;2023-04-12T00:17:36;8.50;99.90
23116;DHT22;11727;52.134;5.052;2023-04-12T00:20:02;8.40;99.90
23116;DHT22;11727;52.134;5.052;2023-04-12T00:22:35;8.40;99.90
23116;DHT22;11727;52.134;5.052;2023-04-12T00:25:01;8.40;99.90
23116;DHT22;11727;52.134;5.052;2023-04-12T00:27:26;8.40;99.90
23116;DHT22;11727;52.134;5.052;2023-04-12T00:29:52;8.40;99.90
23116;DHT22;11727;52.134;5.052;2023-04-12T00:32:18;8.40;99.90
23116;DHT22;11727;52.134;5.052;2023-04-12T00:34:43;8.40;99.90
23116;DHT22;11727;52.134;5.052;2023-04-12T00:37:09;8.40;99.90
23116;DHT22;11727;52.134;5.052;2023-04-12T00:39:35;8.30;99.90
23116;DHT22;11727;52.134;5.052;2023-04-12T00:42:04;8.30;99.90
23116;DHT22;11727;52.134;5.052;2023-04-12T00:44:33;8.30;99.90
23116;DHT22;11727;52.134;5.052;2023-04-12T00:47:00;8.30;99.90
23116;DHT22;11727;52.134;5.052;2023-04-12T00:49:27;8.30;99.90
23116;DHT22;11727;52.134;5.052;2023-04-12T00:52:04;8.30;99.90
23116;DHT22;11727;52.134;5.052;2023-04-12T00:54:32;8.30;99.90
23116;DHT22;11727;52.134;5.052;2023-04-12T00:57:01;8.20;99.90
23116;DHT22;11727;52.134;5.052;2023-04-12T00:59:28;8.20;99.90
23116;DHT22;11727;52.134;5.052;2023-04-12T01:01:57;8.20;99.90
23116;DHT22;11727;52.134;5.052;2023-04-12T01:04:24;8.20;99.90
23116;DHT22;11727;52.134;5.052;2023-04-12T01:10:38;8.20;99.90
23116;DHT22;11727;52.134;5.052;2023-04-12T01:12:56;8.20;99.90
23116;DHT22;11727;52.134;5.052;2023-04-12T01:15:26;8.10;99.90
23116;DHT22;11727;52.134;5.052;2023-04-12T01:18:03;8.10;99.90
23116;DHT22;11727;52.134;5.052;2023-04-12T01:20:34;8.10;99.90
23116;DHT22;11727;52.134;5.052;2023-04-12T01:23:33;8.10;99.90
23116;DHT22;11727;52.134;5.052;2023-04-12T01:28:51;8.10;99.90
23116;DHT22;11727;52.134;5.052;2023-04-12T01:31:19;8.10;99.90
23116;DHT22;11727;52.134;5.052;2023-04-12T01:33:46;8.10;99.90
23116;DHT22;11727;52.134;5.052;2023-04-12T01:36:15;8.10;99.90
23116;DHT22;11727;52.134;5.052;2023-04-12T01:38:42;8.10;99.90
23116;DHT22;11727;52.134;5.052;2023-04-12T01:41:08;8.10;99.90
23116;DHT22;11727;52.134;5.052;2023-04-12T01:43:42;8.10;99.90
23116;DHT22;11727;52.134;5.052;2023-04-12T01:46:09;8.10;99.90
23116;DHT22;11727;52.134;5.052;2023-04-12T01:48:37;8.10;99.90
23116;DHT22;11727;52.134;5.052;2023-04-12T01:51:14;8.10;99.90
23116;DHT22;11727;52.134;5.052;2023-04-12T01:54:03;8.10;99.90
23116;DHT22;11727;52.134;5.052;2023-04-12T01:56:35;8.10;99.90
23116;DHT22;11727;52.134;5.052;2023-04-12T01:59:03;8.20;99.90
23116;DHT22;11727;52.134;5.052;2023-04-12T02:01:30;8.20;99.90
23116;DHT22;11727;52.134;5.052;2023-04-12T02:03:57;8.20;99.90
23116;DHT22;11727;52.134;5.052;2023-04-12T02:06:27;8.20;99.90
23116;DHT22;11727;52.134;5.052;2023-04-12T02:09:00;8.20;99.90
23116;DHT22;11727;52.134;5.052;2023-04-12T02:11:26;8.20;99.90
23116;DHT22;11727;52.134;5.052;2023-04-12T02:13:52;8.20;99.90
23116;DHT22;11727;52.134;5.052;2023-04-12T02:16:17;8.20;99.90
23116;DHT22;11727;52.134;5.052;2023-04-12T02:18:45;8.10;99.90
23116;DHT22;11727;52.134;5.052;2023-04-12T02:21:12;8.10;99.90
23116;DHT22;11727;52.134;5.052;2023-04-12T02:23:37;8.10;99.90
23116;DHT22;11727;52.134;5.052;2023-04-12T02:26:03;8.10;99.90
23116;DHT22;11727;52.134;5.052;2023-04-12T02:28:29;8.10;99.90
23116;DHT22;11727;52.134;5.052;2023-04-12T02:30:54;8.10;99.90
23116;DHT22;11727;52.134;5.052;2023-04-12T02:33:21;8.10;99.90
23116;DHT22;11727;52.134;5.052;2023-04-12T02:35:50;8.10;99.90
23116;DHT22;11727;52.134;5.052;2023-04-12T02:38:16;8.10;99.90
23116;DHT22;11727;52.134;5.052;2023-04-12T02:40:41;8.10;99.90
23116;DHT22;11727;52.134;5.052;2023-04-12T02:43:08;8.10;99.90
23116;DHT22;11727;52.134;5.052;2023-04-12T02:45:34;8.10;99.90
23116;DHT22;11727;52.134;5.052;2023-04-12T02:48:00;8.10;99.90
23116;DHT22;11727;52.134;5.052;2023-04-12T02:50:25;8.10;99.90
23116;DHT22;11727;52.134;5.052;2023-04-12T02:52:51;8.10;99.90
23116;DHT22;11727;52.134;5.052;2023-04-12T02:55:16;8.10;99.90
23116;DHT22;11727;52.134;5.052;2023-04-12T02:57:45;8.10;99.90
23116;DHT22;11727;52.134;5.052;2023-04-12T03:00:12;8.10;99.90
23116;DHT22;11727;52.134;5.052;2023-04-12T03:02:39;8.10;99.90
23116;DHT22;11727;52.134;5.052;2023-04-12T03:05:05;8.10;99.90
23116;DHT22;11727;52.134;5.052;2023-04-12T03:07:32;8.10;99.90
23116;DHT22;11727;52.134;5.052;2023-04-12T03:09:58;8.10;99.90
23116;DHT22;11727;52.134;5.052;2023-04-12T03:12:23;8.10;99.90
23116;DHT22;11727;52.134;5.052;2023-04-12T03:14:49;8.10;99.90
23116;DHT22;11727;52.134;5.052;2023-04-12T03:17:14;8.10;99.90
23116;DHT22;11727;52.134;5.052;2023-04-12T03:19:40;8.10;99.90
23116;DHT22;11727;52.134;5.052;2023-04-12T03:22:06;8.10;99.90
23116;DHT22;11727;52.134;5.052;2023-04-12T03:24:32;8.10;99.90
23116;DHT22;11727;52.134;5.052;2023-04-12T03:27:02;8.10;99.90
23116;DHT22;11727;52.134;5.052;2023-04-12T03:29:29;8.10;99.90
23116;DHT22;11727;52.134;5.052;2023-04-12T03:31:55;8.10;99.90
23116;DHT22;11727;52.134;5.052;2023-04-12T03:34:23;8.10;99.90
23116;DHT22;11727;52.134;5.052;2023-04-12T03:36:49;8.10;99.90
23116;DHT22;11727;52.134;5.052;2023-04-12T03:39:15;8.10;99.90
23116;DHT22;11727;52.134;5.052;2023-04-12T03:41:41;8.00;99.90
23116;DHT22;11727;52.134;5.052;2023-04-12T03:44:08;8.00;99.90
23116;DHT22;11727;52.134;5.052;2023-04-12T03:46:34;8.00;99.90
23116;DHT22;11727;52.134;5.052;2023-04-12T03:48:59;8.00;99.90
23116;DHT22;11727;52.134;5.052;2023-04-12T03:51:25;8.00;99.90
23116;DHT22;11727;52.134;5.052;2023-04-12T03:53:52;8.00;99.90
23116;DHT22;11727;52.134;5.052;2023-04-12T03:56:18;8.00;99.90
23116;DHT22;11727;52.134;5.052;2023-04-12T03:58:45;8.00;99.90
23116;DHT22;11727;52.134;5.052;2023-04-12T04:01:11;8.00;99.90
23116;DHT22;11727;52.134;5.052;2023-04-12T04:03:38;8.00;99.90
23116;DHT22;11727;52.134;5.052;2023-04-12T04:06:06;8.00;99.90
23116;DHT22;11727;52.134;5.052;2023-04-12T04:08:32;8.00;99.90
23116;DHT22;11727;52.134;5.052;2023-04-12T04:10:58;8.00;99.90
23116;DHT22;11727;52.134;5.052;2023-04-12T04:13:24;8.00;99.90
23116;DHT22;11727;52.134;5.052;2023-04-12T04:15:55;8.00;99.90
23116;DHT22;11727;52.134;5.052;2023-04-12T04:18:23;8.00;99.90
23116;DHT22;11727;52.134;5.052;2023-04-12T04:20:48;8.00;99.90
23116;DHT22;11727;52.134;5.052;2023-04-12T04:23:14;8.00;99.90
23116;DHT22;11727;52.134;5.052;2023-04-12T04:25:42;8.00;99.90
23116;DHT22;11727;52.134;5.052;2023-04-12T04:28:07;8.00;99.90
23116;DHT22;11727;52.134;5.052;2023-04-12T04:30:34;8.00;99.90
23116;DHT22;11727;52.134;5.052;2023-04-12T04:33:04;8.00;99.90
23116;DHT22;11727;52.134;5.052;2023-04-12T04:35:30;8.00;99.90
23116;DHT22;11727;52.134;5.052;2023-04-12T04:37:56;8.00;99.90
23116;DHT22;11727;52.134;5.052;2023-04-12T04:40:22;8.10;99.90
23116;DHT22;11727;52.134;5.052;2023-04-12T04:42:49;8.00;99.90
23116;DHT22;11727;52.134;5.052;2023-04-12T04:45:22;8.10;99.90
23116;DHT22;11727;52.134;5.052;2023-04-12T04:47:52;8.00;99.90
23116;DHT22;11727;52.134;5.052;2023-04-12T04:50:19;8.10;99.90
23116;DHT22;11727;52.134;5.052;2023-04-12T04:52:46;8.10;99.90
23116;DHT22;11727;52.134;5.052;2023-04-12T04:55:13;8.20;99.90
23116;DHT22;11727;52.134;5.052;2023-04-12T04:57:39;8.20;99.90
23116;DHT22;11727;52.134;5.052;2023-04-12T05:00:06;8.20;99.90
23116;DHT22;11727;52.134;5.052;2023-04-12T05:02:35;8.20;99.90
23116;DHT22;11727;52.134;5.052;2023-04-12T05:05:01;8.20;99.90
23116;DHT22;11727;52.134;5.052;2023-04-12T05:07:28;8.20;99.90
23116;DHT22;11727;52.134;5.052;2023-04-12T05:09:54;8.20;99.90
23116;DHT22;11727;52.134;5.052;2023-04-12T05:12:20;8.20;99.90
23116;DHT22;11727;52.134;5.052;2023-04-12T05:14:45;8.20;99.90
23116;DHT22;11727;52.134;5.052;2023-04-12T05:17:11;8.20;99.90
23116;DHT22;11727;52.134;5.052;2023-04-12T05:19:37;8.20;99.90
23116;DHT22;11727;52.134;5.052;2023-04-12T05:22:02;8.20;99.90
23116;DHT22;11727;52.134;5.052;2023-04-12T05:24:28;8.20;99.90
23116;DHT22;11727;52.134;5.052;2023-04-12T05:26:53;8.20;99.90
23116;DHT22;11727;52.134;5.052;2023-04-12T05:29:19;8.20;99.90
23116;DHT22;11727;52.134;5.052;2023-04-12T05:31:45;8.20;99.90
23116;DHT22;11727;52.134;5.052;2023-04-12T05:34:10;8.20;99.90
23116;DHT22;11727;52.134;5.052;2023-04-12T05:36:36;8.30;99.90
23116;DHT22;11727;52.134;5.052;2023-04-12T05:39:01;8.30;99.90
23116;DHT22;11727;52.134;5.052;2023-04-12T05:41:27;8.30;99.90
23116;DHT22;11727;52.134;5.052;2023-04-12T05:43:52;8.30;99.90
23116;DHT22;11727;52.134;5.052;2023-04-12T05:46:18;8.30;99.90
23116;DHT22;11727;52.134;5.052;2023-04-12T05:48:44;8.40;99.90
23116;DHT22;11727;52.134;5.052;2023-04-12T05:51:09;8.40;99.90
23116;DHT22;11727;52.134;5.052;2023-04-12T05:53:35;8.40;99.90
23116;DHT22;11727;52.134;5.052;2023-04-12T05:56:00;8.40;99.90
23116;DHT22;11727;52.134;5.052;2023-04-12T05:58:26;8.40;99.90
23116;DHT22;11727;52.134;5.052;2023-04-12T06:00:52;8.40;99.90
23116;DHT22;11727;52.134;5.052;2023-04-12T06:03:20;8.40;99.90
23116;DHT22;11727;52.134;5.052;2023-04-12T06:05:48;8.40;99.90
23116;DHT22;11727;52.134;5.052;2023-04-12T06:08:13;8.50;99.90
23116;DHT22;11727;52.134;5.052;2023-04-12T06:10:39;8.50;99.90
23116;DHT22;11727;52.134;5.052;2023-04-12T06:13:05;8.50;99.90
23116;DHT22;11727;52.134;5.052;2023-04-12T06:15:30;8.50;99.90
23116;DHT22;11727;52.134;5.052;2023-04-12T06:17:57;8.50;99.90
23116;DHT22;11727;52.134;5.052;2023-04-12T06:20:24;8.60;99.90
23116;DHT22;11727;52.134;5.052;2023-04-12T06:22:50;8.60;99.90
23116;DHT22;11727;52.134;5.052;2023-04-12T06:25:16;8.60;99.90
23116;DHT22;11727;52.134;5.052;2023-04-12T06:27:41;8.60;99.90
23116;DHT22;11727;52.134;5.052;2023-04-12T06:30:07;8.60;99.90
23116;DHT22;11727;52.134;5.052;2023-04-12T06:32:33;8.60;99.90
23116;DHT22;11727;52.134;5.052;2023-04-12T06:34:59;8.60;99.90
23116;DHT22;11727;52.134;5.052;2023-04-12T06:37:24;8.60;99.90
23116;DHT22;11727;52.134;5.052;2023-04-12T06:39:50;8.70;99.90
23116;DHT22;11727;52.134;5.052;2023-04-12T06:42:17;8.70;99.90
23116;DHT22;11727;52.134;5.052;2023-04-12T06:44:42;8.70;99.90
23116;DHT22;11727;52.134;5.052;2023-04-12T06:47:08;8.70;99.90
23116;DHT22;11727;52.134;5.052;2023-04-12T06:49:33;8.70;99.90
23116;DHT22;11727;52.134;5.052;2023-04-12T06:51:59;8.80;99.90
23116;DHT22;11727;52.134;5.052;2023-04-12T06:54:25;8.80;99.90
23116;DHT22;11727;52.134;5.052;2023-04-12T06:56:51;8.80;99.90
23116;DHT22;11727;52.134;5.052;2023-04-12T06:59:16;8.90;99.90
23116;DHT22;11727;52.134;5.052;2023-04-12T07:01:45;8.90;99.90
23116;DHT22;11727;52.134;5.052;2023-04-12T07:04:11;8.90;99.90
23116;DHT22;11727;52.134;5.052;2023-04-12T07:06:36;8.90;99.90
23116;DHT22;11727;52.134;5.052;2023-04-12T07:09:02;8.90;99.90
23116;DHT22;11727;52.134;5.052;2023-04-12T07:11:28;9.00;99.90
23116;DHT22;11727;52.134;5.052;2023-04-12T07:13:56;9.10;99.90
23116;DHT22;11727;52.134;5.052;2023-04-12T07:16:23;9.10;99.90
23116;DHT22;11727;52.134;5.052;2023-04-12T07:18:49;9.10;99.90
23116;DHT22;11727;52.134;5.052;2023-04-12T07:21:15;9.10;99.90
23116;DHT22;11727;52.134;5.052;2023-04-12T07:23:42;9.20;99.90
23116;DHT22;11727;52.134;5.052;2023-04-12T07:26:08;9.20;99.90
23116;DHT22;11727;52.134;5.052;2023-04-12T07:28:33;9.30;99.90
23116;DHT22;11727;52.134;5.052;2023-04-12T07:31:03;9.30;99.90
23116;DHT22;11727;52.134;5.052;2023-04-12T07:33:29;9.40;99.90
23116;DHT22;11727;52.134;5.052;2023-04-12T07:35:56;9.40;99.90
23116;DHT22;11727;52.134;5.052;2023-04-12T07:38:21;9.40;99.90
23116;DHT22;11727;52.134;5.052;2023-04-12T07:40:47;9.40;99.90
23116;DHT22;11727;52.134;5.052;2023-04-12T07:43:15;9.50;99.90
23116;DHT22;11727;52.134;5.052;2023-04-12T07:45:40;9.50;99.90
23116;DHT22;11727;52.134;5.052;2023-04-12T07:48:06;9.60;99.90
23116;DHT22;11727;52.134;5.052;2023-04-12T07:50:32;9.60;99.90
23116;DHT22;11727;52.134;5.052;2023-04-12T07:53:19;9.60;99.90
23116;DHT22;11727;52.134;5.052;2023-04-12T07:55:45;9.60;99.90
23116;DHT22;11727;52.134;5.052;2023-04-12T07:58:11;9.70;99.90
23116;DHT22;11727;52.134;5.052;2023-04-12T08:00:37;9.90;99.90
23116;DHT22;11727;52.134;5.052;2023-04-12T08:03:03;9.90;99.90
23116;DHT22;11727;52.134;5.052;2023-04-12T08:05:28;9.90;99.90
23116;DHT22;11727;52.134;5.052;2023-04-12T08:07:55;9.90;99.90
23116;DHT22;11727;52.134;5.052;2023-04-12T08:10:21;9.90;99.90
23116;DHT22;11727;52.134;5.052;2023-04-12T08:12:46;10.00;99.90
23116;DHT22;11727;52.134;5.052;2023-04-12T08:15:12;10.10;99.90
23116;DHT22;11727;52.134;5.052;2023-04-12T08:17:38;10.30;99.90
23116;DHT22;11727;52.134;5.052;2023-04-12T08:20:04;10.40;99.90
23116;DHT22;11727;52.134;5.052;2023-04-12T08:22:29;10.70;99.90
23116;DHT22;11727;52.134;5.052;2023-04-12T08:24:55;11.10;99.90
23116;DHT22;11727;52.134;5.052;2023-04-12T08:27:21;11.40;99.90
23116;DHT22;11727;52.134;5.052;2023-04-12T08:29:46;11.60;99.90
23116;DHT22;11727;52.134;5.052;2023-04-12T08:32:12;11.70;99.90
23116;DHT22;11727;52.134;5.052;2023-04-12T08:34:37;11.90;99.90
23116;DHT22;11727;52.134;5.052;2023-04-12T08:37:03;12.10;99.90
23116;DHT22;11727;52.134;5.052;2023-04-12T08:39:30;12.10;99.90
23116;DHT22;11727;52.134;5.052;2023-04-12T08:41:57;12.10;99.90
23116;DHT22;11727;52.134;5.052;2023-04-12T08:44:33;12.40;99.90
23116;DHT22;11727;52.134;5.052;2023-04-12T08:47:01;12.70;99.90
23116;DHT22;11727;52.134;5.052;2023-04-12T08:49:27;12.80;99.90
23116;DHT22;11727;52.134;5.052;2023-04-12T08:51:53;12.60;99.90
23116;DHT22;11727;52.134;5.052;2023-04-12T08:54:19;12.40;99.90
23116;DHT22;11727;52.134;5.052;2023-04-12T08:56:45;12.20;99.90
23116;DHT22;11727;52.134;5.052;2023-04-12T08:59:13;12.00;99.90
23116;DHT22;11727;52.134;5.052;2023-04-12T09:01:40;11.90;99.90
23116;DHT22;11727;52.134;5.052;2023-04-12T09:04:06;11.70;99.90
23116;DHT22;11727;52.134;5.052;2023-04-12T09:06:32;11.70;99.90
23116;DHT22;11727;52.134;5.052;2023-04-12T09:08:58;11.70;99.90
23116;DHT22;11727;52.134;5.052;2023-04-12T09:11:27;11.70;99.90
23116;DHT22;11727;52.134;5.052;2023-04-12T09:13:55;11.80;99.90
23116;DHT22;11727;52.134;5.052;2023-04-12T09:16:34;12.00;99.90
23116;DHT22;11727;52.134;5.052;2023-04-12T09:19:00;12.10;99.90
23116;DHT22;11727;52.134;5.052;2023-04-12T09:21:27;12.20;99.90
23116;DHT22;11727;52.134;5.052;2023-04-12T09:24:04;12.30;99.90
23116;DHT22;11727;52.134;5.052;2023-04-12T09:26:34;12.30;99.90
23116;DHT22;11727;52.134;5.052;2023-04-12T09:29:00;12.30;99.90
23116;DHT22;11727;52.134;5.052;2023-04-12T09:31:25;12.30;99.90
23116;DHT22;11727;52.134;5.052;2023-04-12T09:33:51;12.30;99.90
23116;DHT22;11727;52.134;5.052;2023-04-12T09:36:17;12.30;99.90
23116;DHT22;11727;52.134;5.052;2023-04-12T09:38:59;12.40;99.90
23116;DHT22;11727;52.134;5.052;2023-04-12T09:41:25;12.50;99.90
23116;DHT22;11727;52.134;5.052;2023-04-12T09:43:53;12.70;99.90
23116;DHT22;11727;52.134;5.052;2023-04-12T09:46:18;12.70;99.90
23116;DHT22;11727;52.134;5.052;2023-04-12T09:48:54;12.60;99.90
23116;DHT22;11727;52.134;5.052;2023-04-12T09:51:38;12.50;99.90
23116;DHT22;11727;52.134;5.052;2023-04-12T09:54:05;12.50;99.90
23116;DHT22;11727;52.134;5.052;2023-04-12T09:56:33;12.50;99.90
23116;DHT22;11727;52.134;5.052;2023-04-12T09:59:06;12.60;99.90
23116;DHT22;11727;52.134;5.052;2023-04-12T10:01:42;12.70;99.90
23116;DHT22;11727;52.134;5.052;2023-04-12T10:04:08;12.80;99.90
23116;DHT22;11727;52.134;5.052;2023-04-12T10:06:34;12.80;99.90
23116;DHT22;11727;52.134;5.052;2023-04-12T10:09:04;13.00;99.90
23116;DHT22;11727;52.134;5.052;2023-04-12T10:11:31;13.00;99.90
23116;DHT22;11727;52.134;5.052;2023-04-12T10:13:58;13.10;99.90
23116;DHT22;11727;52.134;5.052;2023-04-12T10:16:26;13.20;99.90
23116;DHT22;11727;52.134;5.052;2023-04-12T10:18:53;13.20;99.90
23116;DHT22;11727;52.134;5.052;2023-04-12T10:21:22;13.10;99.90
23116;DHT22;11727;52.134;5.052;2023-04-12T10:23:48;13.00;99.90
23116;DHT22;11727;52.134;5.052;2023-04-12T10:26:14;12.90;99.90
23116;DHT22;11727;52.134;5.052;2023-04-12T10:28:42;12.60;99.90
23116;DHT22;11727;52.134;5.052;2023-04-12T10:31:28;12.60;99.90
23116;DHT22;11727;52.134;5.052;2023-04-12T10:33:54;12.50;99.90
23116;DHT22;11727;52.134;5.052;2023-04-12T10:36:49;12.40;99.90
23116;DHT22;11727;52.134;5.052;2023-04-12T10:39:15;12.60;99.90
23116;DHT22;11727;52.134;5.052;2023-04-12T10:44:38;12.80;99.90
23116;DHT22;11727;52.134;5.052;2023-04-12T10:47:04;12.80;99.90
23116;DHT22;11727;52.134;5.052;2023-04-12T10:49:29;12.80;99.90
23116;DHT22;11727;52.134;5.052;2023-04-12T10:56:54;13.10;99.90
23116;DHT22;11727;52.134;5.052;2023-04-12T10:59:19;13.10;99.90
23116;DHT22;11727;52.134;5.052;2023-04-12T11:02:10;13.10;99.90
23116;DHT22;11727;52.134;5.052;2023-04-12T11:04:36;13.40;99.90
23116;DHT22;11727;52.134;5.052;2023-04-12T11:14:47;14.40;99.90
23116;DHT22;11727;52.134;5.052;2023-04-12T11:22:16;14.30;99.90
23116;DHT22;11727;52.134;5.052;2023-04-12T11:24:43;14.00;99.90
23116;DHT22;11727;52.134;5.052;2023-04-12T11:27:10;13.70;99.90
23116;DHT22;11727;52.134;5.052;2023-04-12T11:29:36;13.40;99.90
23116;DHT22;11727;52.134;5.052;2023-04-12T11:32:02;13.10;99.90
23116;DHT22;11727;52.134;5.052;2023-04-12T11:34:35;12.90;99.90
23116;DHT22;11727;52.134;5.052;2023-04-12T11:37:02;12.90;99.90
23116;DHT22;11727;52.134;5.052;2023-04-12T11:39:32;12.90;99.90
23116;DHT22;11727;52.134;5.052;2023-04-12T11:41:58;13.00;99.90
23116;DHT22;11727;52.134;5.052;2023-04-12T11:44:24;13.10;99.90
23116;DHT22;11727;52.134;5.052;2023-04-12T11:46:50;13.30;99.90
23116;DHT22;11727;52.134;5.052;2023-04-12T11:49:20;13.50;99.90
23116;DHT22;11727;52.134;5.052;2023-04-12T11:51:46;13.50;99.90
23116;DHT22;11727;52.134;5.052;2023-04-12T11:54:12;13.50;99.90
23116;DHT22;11727;52.134;5.052;2023-04-12T11:56:38;13.40;99.90
23116;DHT22;11727;52.134;5.052;2023-04-12T11:59:04;13.40;99.90
23116;DHT22;11727;52.134;5.052;2023-04-12T12:01:31;13.30;99.90
23116;DHT22;11727;52.134;5.052;2023-04-12T12:03:59;13.20;99.90
23116;DHT22;11727;52.134;5.052;2023-04-12T12:06:25;13.30;99.90
23116;DHT22;11727;52.134;5.052;2023-04-12T12:08:52;13.30;99.90
23116;DHT22;11727;52.134;5.052;2023-04-12T12:11:22;13.30;99.90
23116;DHT22;11727;52.134;5.052;2023-04-12T12:13:53;13.20;99.90
23116;DHT22;11727;52.134;5.052;2023-04-12T12:16:26;13.20;99.90
23116;DHT22;11727;52.134;5.052;2023-04-12T12:18:55;13.30;99.90
23116;DHT22;11727;52.134;5.052;2023-04-12T12:21:22;13.30;99.90
23116;DHT22;11727;52.134;5.052;2023-04-12T12:23:48;13.20;99.90
23116;DHT22;11727;52.134;5.052;2023-04-12T12:26:20;13.20;99.90
23116;DHT22;11727;52.134;5.052;2023-04-12T12:28:54;13.30;99.90
23116;DHT22;11727;52.134;5.052;2023-04-12T12:31:22;13.60;99.90
23116;DHT22;11727;52.134;5.052;2023-04-12T12:33:48;13.70;99.90
23116;DHT22;11727;52.134;5.052;2023-04-12T12:36:18;13.70;99.90
23116;DHT22;11727;52.134;5.052;2023-04-12T12:38:47;13.50;99.90
23116;DHT22;11727;52.134;5.052;2023-04-12T12:41:23;13.30;99.90
23116;DHT22;11727;52.134;5.052;2023-04-12T12:43:50;13.20;99.90
23116;DHT22;11727;52.134;5.052;2023-04-12T12:46:17;13.10;99.90
23116;DHT22;11727;52.134;5.052;2023-04-12T12:48:44;13.10;99.90
23116;DHT22;11727;52.134;5.052;2023-04-12T12:51:11;13.00;99.90
23116;DHT22;11727;52.134;5.052;2023-04-12T12:53:40;12.70;99.90
23116;DHT22;11727;52.134;5.052;2023-04-12T12:56:11;12.60;99.90
23116;DHT22;11727;52.134;5.052;2023-04-12T12:58:37;12.50;99.90
23116;DHT22;11727;52.134;5.052;2023-04-12T13:01:03;12.40;99.90
23116;DHT22;11727;52.134;5.052;2023-04-12T13:03:29;12.30;99.90
23116;DHT22;11727;52.134;5.052;2023-04-12T13:05:55;12.20;99.90
23116;DHT22;11727;52.134;5.052;2023-04-12T13:08:24;12.30;99.90
23116;DHT22;11727;52.134;5.052;2023-04-12T13:10:50;12.20;99.90
23116;DHT22;11727;52.134;5.052;2023-04-12T13:13:17;12.20;99.90
23116;DHT22;11727;52.134;5.052;2023-04-12T13:15:43;12.20;99.90
23116;DHT22;11727;52.134;5.052;2023-04-12T13:18:11;12.40;99.90
23116;DHT22;11727;52.134;5.052;2023-04-12T13:20:40;12.80;99.90
23116;DHT22;11727;52.134;5.052;2023-04-12T13:23:05;13.30;99.90
23116;DHT22;11727;52.134;5.052;2023-04-12T13:25:31;13.70;99.90
23116;DHT22;11727;52.134;5.052;2023-04-12T13:27:57;14.10;99.90
23116;DHT22;11727;52.134;5.052;2023-04-12T13:30:22;14.30;99.90
23116;DHT22;11727;52.134;5.052;2023-04-12T13:32:48;14.40;99.90
23116;DHT22;11727;52.134;5.052;2023-04-12T13:35:14;14.60;99.90
23116;DHT22;11727;52.134;5.052;2023-04-12T13:37:40;14.70;99.90
23116;DHT22;11727;52.134;5.052;2023-04-12T13:40:07;14.70;99.90
23116;DHT22;11727;52.134;5.052;2023-04-12T13:42:32;14.80;99.90
23116;DHT22;11727;52.134;5.052;2023-04-12T13:44:58;14.80;99.90
23116;DHT22;11727;52.134;5.052;2023-04-12T13:47:24;14.90;99.90
23116;DHT22;11727;52.134;5.052;2023-04-12T13:49:50;14.70;99.90
23116;DHT22;11727;52.134;5.052;2023-04-12T13:52:16;14.50;99.90
23116;DHT22;11727;52.134;5.052;2023-04-12T13:54:41;14.20;99.90
23116;DHT22;11727;52.134;5.052;2023-04-12T13:57:08;13.70;99.90
23116;DHT22;11727;52.134;5.052;2023-04-12T13:59:34;13.20;99.90
23116;DHT22;11727;52.134;5.052;2023-04-12T14:02:00;12.80;99.90
23116;DHT22;11727;52.134;5.052;2023-04-12T14:04:29;12.50;99.90
23116;DHT22;11727;52.134;5.052;2023-04-12T14:06:56;12.40;99.90
23116;DHT22;11727;52.134;5.052;2023-04-12T14:09:26;12.40;99.90
23116;DHT22;11727;52.134;5.052;2023-04-12T14:11:52;12.50;99.90
23116;DHT22;11727;52.134;5.052;2023-04-12T14:14:23;12.50;99.90
23116;DHT22;11727;52.134;5.052;2023-04-12T14:16:49;12.40;99.90
23116;DHT22;11727;52.134;5.052;2023-04-12T14:19:21;12.30;99.90
23116;DHT22;11727;52.134;5.052;2023-04-12T14:21:47;12.10;99.90
23116;DHT22;11727;52.134;5.052;2023-04-12T14:24:14;11.90;99.90
23116;DHT22;11727;52.134;5.052;2023-04-12T14:26:40;11.90;99.90
23116;DHT22;11727;52.134;5.052;2023-04-12T14:29:06;12.10;99.90
23116;DHT22;11727;52.134;5.052;2023-04-12T14:31:32;12.50;99.90
23116;DHT22;11727;52.134;5.052;2023-04-12T14:33:58;12.80;99.90
23116;DHT22;11727;52.134;5.052;2023-04-12T14:36:24;13.30;99.90
23116;DHT22;11727;52.134;5.052;2023-04-12T14:38:51;13.50;99.90
23116;DHT22;11727;52.134;5.052;2023-04-12T14:41:17;13.40;99.90
23116;DHT22;11727;52.134;5.052;2023-04-12T14:43:43;13.20;99.90
23116;DHT22;11727;52.134;5.052;2023-04-12T14:46:10;13.10;99.90
23116;DHT22;11727;52.134;5.052;2023-04-12T14:48:36;13.20;99.90
23116;DHT22;11727;52.134;5.052;2023-04-12T14:51:04;13.40;99.90
23116;DHT22;11727;52.134;5.052;2023-04-12T14:53:33;13.40;99.90
23116;DHT22;11727;52.134;5.052;2023-04-12T14:55:58;13.50;99.90
23116;DHT22;11727;52.134;5.052;2023-04-12T14:58:28;13.60;99.90
23116;DHT22;11727;52.134;5.052;2023-04-12T15:00:57;13.60;99.90
23116;DHT22;11727;52.134;5.052;2023-04-12T15:03:24;13.50;99.90
23116;DHT22;11727;52.134;5.052;2023-04-12T15:05:51;13.10;99.90
23116;DHT22;11727;52.134;5.052;2023-04-12T15:08:16;12.70;99.90
23116;DHT22;11727;52.134;5.052;2023-04-12T15:10:42;12.60;99.90
23116;DHT22;11727;52.134;5.052;2023-04-12T15:13:09;12.80;99.90
23116;DHT22;11727;52.134;5.052;2023-04-12T15:15:35;12.90;99.90
23116;DHT22;11727;52.134;5.052;2023-04-12T15:18:00;13.00;99.90
23116;DHT22;11727;52.134;5.052;2023-04-12T15:20:27;12.90;99.90
23116;DHT22;11727;52.134;5.052;2023-04-12T15:22:53;12.70;99.90
23116;DHT22;11727;52.134;5.052;2023-04-12T15:25:18;12.50;99.90
23116;DHT22;11727;52.134;5.052;2023-04-12T15:27:46;12.30;99.90
23116;DHT22;11727;52.134;5.052;2023-04-12T15:30:12;12.10;99.90
23116;DHT22;11727;52.134;5.052;2023-04-12T15:32:40;12.10;99.90
23116;DHT22;11727;52.134;5.052;2023-04-12T15:35:06;12.20;99.90
23116;DHT22;11727;52.134;5.052;2023-04-12T15:37:32;12.10;99.90
23116;DHT22;11727;52.134;5.052;2023-04-12T15:40:02;12.00;99.90
23116;DHT22;11727;52.134;5.052;2023-04-12T15:42:40;11.90;99.90
23116;DHT22;11727;52.134;5.052;2023-04-12T15:45:08;11.90;99.90
23116;DHT22;11727;52.134;5.052;2023-04-12T15:47:34;11.90;99.90
23116;DHT22;11727;52.134;5.052;2023-04-12T15:49:59;12.00;99.90
23116;DHT22;11727;52.134;5.052;2023-04-12T15:52:25;12.40;99.90
23116;DHT22;11727;52.134;5.052;2023-04-12T15:54:51;12.70;99.90
23116;DHT22;11727;52.134;5.052;2023-04-12T15:57:16;12.90;99.90
23116;DHT22;11727;52.134;5.052;2023-04-12T15:59:42;13.00;99.90
23116;DHT22;11727;52.134;5.052;2023-04-12T16:02:08;12.90;99.90
23116;DHT22;11727;52.134;5.052;2023-04-12T16:04:35;12.70;99.90